Terminal Aerodrome Forecast
Issued by NWS Jackson, KY

Home | Current Version | Previous Version | Text Only | Print | Product List | Glossary On
Versions: 1 2 3 4 5 6 7 8 9 10 11 12 13 14 15 16 17 18 19 20
177
FTUS43 KJKL 262339
TAFLOZ
TAF
KLOZ 262339Z 2700/2724 20006KT P6SM VCSH BKN060
     FM271400 19005KT P6SM -SHRA BKN070
     FM271600 20006KT P6SM VCSH BKN060
     FM271800 21007KT P6SM VCTS OVC060CB
     FM272300 19006KT P6SM BKN110=

USA.gov is the U.S. government's official web portal to all federal, state and local government web resources and services.